sensor_id;sensor_type;location;lat;lon;timestamp;temperature;humidity
18974;DHT22;9621;48.690;9.466;2022-10-23T00:01:19;6.50;99.90
18974;DHT22;9621;48.690;9.466;2022-10-23T00:03:49;6.50;99.90
18974;DHT22;9621;48.690;9.466;2022-10-23T00:06:16;6.40;99.90
18974;DHT22;9621;48.690;9.466;2022-10-23T00:08:45;6.40;99.90
18974;DHT22;9621;48.690;9.466;2022-10-23T00:11:14;6.40;99.90
18974;DHT22;9621;48.690;9.466;2022-10-23T00:13:41;6.30;99.90
18974;DHT22;9621;48.690;9.466;2022-10-23T00:16:11;6.30;99.90
18974;DHT22;9621;48.690;9.466;2022-10-23T00:18:38;6.40;99.90
18974;DHT22;9621;48.690;9.466;2022-10-23T00:21:07;6.30;99.90
18974;DHT22;9621;48.690;9.466;2022-10-23T00:23:34;6.30;99.90
18974;DHT22;9621;48.690;9.466;2022-10-23T00:26:01;6.20;99.90
18974;DHT22;9621;48.690;9.466;2022-10-23T00:28:28;6.20;99.90
18974;DHT22;9621;48.690;9.466;2022-10-23T00:30:55;6.10;99.90
18974;DHT22;9621;48.690;9.466;2022-10-23T00:33:23;6.20;99.90
18974;DHT22;9621;48.690;9.466;2022-10-23T00:35:50;6.10;99.90
18974;DHT22;9621;48.690;9.466;2022-10-23T00:38:17;6.20;99.90
18974;DHT22;9621;48.690;9.466;2022-10-23T00:40:44;6.20;99.90
18974;DHT22;9621;48.690;9.466;2022-10-23T00:43:17;6.20;99.90
18974;DHT22;9621;48.690;9.466;2022-10-23T00:45:44;6.10;99.90
18974;DHT22;9621;48.690;9.466;2022-10-23T00:48:11;6.10;99.90
18974;DHT22;9621;48.690;9.466;2022-10-23T00:50:41;6.10;99.90
18974;DHT22;9621;48.690;9.466;2022-10-23T00:53:09;6.10;99.90
18974;DHT22;9621;48.690;9.466;2022-10-23T00:55:38;6.00;99.90
18974;DHT22;9621;48.690;9.466;2022-10-23T00:58:06;6.00;99.90
18974;DHT22;9621;48.690;9.466;2022-10-23T01:00:42;6.00;99.90
18974;DHT22;9621;48.690;9.466;2022-10-23T01:03:09;5.90;99.90
18974;DHT22;9621;48.690;9.466;2022-10-23T01:05:43;5.90;99.90
18974;DHT22;9621;48.690;9.466;2022-10-23T01:08:17;5.90;99.90
18974;DHT22;9621;48.690;9.466;2022-10-23T01:10:48;5.90;99.90
18974;DHT22;9621;48.690;9.466;2022-10-23T01:13:23;5.90;99.90
18974;DHT22;9621;48.690;9.466;2022-10-23T01:15:57;5.90;99.90
18974;DHT22;9621;48.690;9.466;2022-10-23T01:18:28;6.00;99.90
18974;DHT22;9621;48.690;9.466;2022-10-23T01:21:02;5.80;99.90
18974;DHT22;9621;48.690;9.466;2022-10-23T01:23:56;5.80;99.90
18974;DHT22;9621;48.690;9.466;2022-10-23T01:26:33;5.80;99.90
18974;DHT22;9621;48.690;9.466;2022-10-23T01:29:07;5.70;99.90
18974;DHT22;9621;48.690;9.466;2022-10-23T01:31:40;5.70;99.90
18974;DHT22;9621;48.690;9.466;2022-10-23T01:34:12;5.70;99.90
18974;DHT22;9621;48.690;9.466;2022-10-23T01:36:41;5.60;99.90
18974;DHT22;9621;48.690;9.466;2022-10-23T01:39:12;5.60;99.90
18974;DHT22;9621;48.690;9.466;2022-10-23T01:41:44;5.60;99.90
18974;DHT22;9621;48.690;9.466;2022-10-23T01:44:16;5.70;99.90
18974;DHT22;9621;48.690;9.466;2022-10-23T01:46:47;5.70;99.90
18974;DHT22;9621;48.690;9.466;2022-10-23T01:49:16;5.70;99.90
18974;DHT22;9621;48.690;9.466;2022-10-23T01:51:48;5.60;99.90
18974;DHT22;9621;48.690;9.466;2022-10-23T01:54:19;5.50;99.90
18974;DHT22;9621;48.690;9.466;2022-10-23T01:56:48;5.50;99.90
18974;DHT22;9621;48.690;9.466;2022-10-23T01:59:20;5.50;99.90
18974;DHT22;9621;48.690;9.466;2022-10-23T02:01:50;5.50;99.90
18974;DHT22;9621;48.690;9.466;2022-10-23T02:04:21;5.50;99.90
18974;DHT22;9621;48.690;9.466;2022-10-23T02:06:49;5.50;99.90
18974;DHT22;9621;48.690;9.466;2022-10-23T02:09:16;5.50;99.90
18974;DHT22;9621;48.690;9.466;2022-10-23T02:11:51;5.50;99.90
18974;DHT22;9621;48.690;9.466;2022-10-23T02:14:25;5.40;99.90
18974;DHT22;9621;48.690;9.466;2022-10-23T02:16:57;5.40;99.90
18974;DHT22;9621;48.690;9.466;2022-10-23T02:19:32;6.60;99.90
18974;DHT22;9621;48.690;9.466;2022-10-23T02:22:07;5.40;99.90
18974;DHT22;9621;48.690;9.466;2022-10-23T02:24:38;5.50;99.90
18974;DHT22;9621;48.690;9.466;2022-10-23T02:27:10;5.40;99.90
18974;DHT22;9621;48.690;9.466;2022-10-23T02:29:43;5.40;99.90
18974;DHT22;9621;48.690;9.466;2022-10-23T02:32:12;5.40;99.90
18974;DHT22;9621;48.690;9.466;2022-10-23T02:34:40;5.40;99.90
18974;DHT22;9621;48.690;9.466;2022-10-23T02:37:07;5.40;99.90
18974;DHT22;9621;48.690;9.466;2022-10-23T02:39:34;5.30;99.90
18974;DHT22;9621;48.690;9.466;2022-10-23T02:42:05;5.30;99.90
18974;DHT22;9621;48.690;9.466;2022-10-23T02:44:43;5.30;99.90
18974;DHT22;9621;48.690;9.466;2022-10-23T02:47:21;5.30;99.90
18974;DHT22;9621;48.690;9.466;2022-10-23T02:49:55;5.30;99.90
18974;DHT22;9621;48.690;9.466;2022-10-23T02:52:31;5.30;99.90
18974;DHT22;9621;48.690;9.466;2022-10-23T02:55:08;5.40;99.90
18974;DHT22;9621;48.690;9.466;2022-10-23T02:57:40;5.30;99.90
18974;DHT22;9621;48.690;9.466;2022-10-23T03:00:12;5.40;99.90
18974;DHT22;9621;48.690;9.466;2022-10-23T03:02:44;5.40;99.90
18974;DHT22;9621;48.690;9.466;2022-10-23T03:05:15;5.40;99.90
18974;DHT22;9621;48.690;9.466;2022-10-23T03:07:43;5.40;99.90
18974;DHT22;9621;48.690;9.466;2022-10-23T03:10:12;5.40;99.90
18974;DHT22;9621;48.690;9.466;2022-10-23T03:12:39;5.40;99.90
18974;DHT22;9621;48.690;9.466;2022-10-23T03:15:07;5.40;99.90
18974;DHT22;9621;48.690;9.466;2022-10-23T03:17:35;5.40;99.90
18974;DHT22;9621;48.690;9.466;2022-10-23T03:20:03;5.40;99.90
18974;DHT22;9621;48.690;9.466;2022-10-23T03:22:30;5.50;99.90
18974;DHT22;9621;48.690;9.466;2022-10-23T03:24:56;5.50;99.90
18974;DHT22;9621;48.690;9.466;2022-10-23T03:27:23;5.50;99.90
18974;DHT22;9621;48.690;9.466;2022-10-23T03:29:50;5.60;99.90
18974;DHT22;9621;48.690;9.466;2022-10-23T03:32:17;5.50;99.90
18974;DHT22;9621;48.690;9.466;2022-10-23T03:34:45;5.50;99.90
18974;DHT22;9621;48.690;9.466;2022-10-23T03:37:12;5.50;99.90
18974;DHT22;9621;48.690;9.466;2022-10-23T03:39:39;5.50;99.90
18974;DHT22;9621;48.690;9.466;2022-10-23T03:42:06;5.50;99.90
18974;DHT22;9621;48.690;9.466;2022-10-23T03:44:33;5.60;99.90
18974;DHT22;9621;48.690;9.466;2022-10-23T03:47:00;5.60;99.90
18974;DHT22;9621;48.690;9.466;2022-10-23T03:49:27;5.70;99.90
18974;DHT22;9621;48.690;9.466;2022-10-23T03:51:55;5.70;99.90
18974;DHT22;9621;48.690;9.466;2022-10-23T03:54:23;5.80;99.90
18974;DHT22;9621;48.690;9.466;2022-10-23T03:56:51;5.80;99.90
18974;DHT22;9621;48.690;9.466;2022-10-23T03:59:18;5.80;99.90
18974;DHT22;9621;48.690;9.466;2022-10-23T04:01:45;5.90;99.90
18974;DHT22;9621;48.690;9.466;2022-10-23T04:04:13;5.90;99.90
18974;DHT22;9621;48.690;9.466;2022-10-23T04:06:40;5.90;99.90
18974;DHT22;9621;48.690;9.466;2022-10-23T04:09:09;5.90;99.90
18974;DHT22;9621;48.690;9.466;2022-10-23T04:11:36;5.90;99.90
18974;DHT22;9621;48.690;9.466;2022-10-23T04:14:03;6.00;99.90
18974;DHT22;9621;48.690;9.466;2022-10-23T04:16:30;6.00;99.90
18974;DHT22;9621;48.690;9.466;2022-10-23T04:18:57;6.00;99.90
18974;DHT22;9621;48.690;9.466;2022-10-23T04:21:24;6.00;99.90
18974;DHT22;9621;48.690;9.466;2022-10-23T04:23:52;6.00;99.90
18974;DHT22;9621;48.690;9.466;2022-10-23T04:26:20;6.00;99.90
18974;DHT22;9621;48.690;9.466;2022-10-23T04:28:47;6.00;99.90
18974;DHT22;9621;48.690;9.466;2022-10-23T04:31:13;6.00;99.90
18974;DHT22;9621;48.690;9.466;2022-10-23T04:33:40;6.10;99.90
18974;DHT22;9621;48.690;9.466;2022-10-23T04:36:08;6.00;99.90
18974;DHT22;9621;48.690;9.466;2022-10-23T04:38:35;6.00;99.90
18974;DHT22;9621;48.690;9.466;2022-10-23T04:41:02;6.10;99.90
18974;DHT22;9621;48.690;9.466;2022-10-23T04:43:30;6.10;99.90
18974;DHT22;9621;48.690;9.466;2022-10-23T04:45:58;6.10;99.90
18974;DHT22;9621;48.690;9.466;2022-10-23T04:48:25;6.10;99.90
18974;DHT22;9621;48.690;9.466;2022-10-23T04:50:56;6.10;99.90
18974;DHT22;9621;48.690;9.466;2022-10-23T04:53:23;6.20;99.90
18974;DHT22;9621;48.690;9.466;2022-10-23T04:55:51;6.30;99.90
18974;DHT22;9621;48.690;9.466;2022-10-23T04:58:19;6.30;99.90
18974;DHT22;9621;48.690;9.466;2022-10-23T05:00:48;6.30;99.90
18974;DHT22;9621;48.690;9.466;2022-10-23T05:03:16;6.30;99.90
18974;DHT22;9621;48.690;9.466;2022-10-23T05:05:43;6.40;99.90
18974;DHT22;9621;48.690;9.466;2022-10-23T05:08:11;6.40;99.90
18974;DHT22;9621;48.690;9.466;2022-10-23T05:10:38;6.40;99.90
18974;DHT22;9621;48.690;9.466;2022-10-23T05:13:06;6.50;99.90
18974;DHT22;9621;48.690;9.466;2022-10-23T05:15:33;6.50;99.90
18974;DHT22;9621;48.690;9.466;2022-10-23T05:18:07;6.50;99.90
18974;DHT22;9621;48.690;9.466;2022-10-23T05:20:36;6.50;99.90
18974;DHT22;9621;48.690;9.466;2022-10-23T05:23:06;6.60;99.90
18974;DHT22;9621;48.690;9.466;2022-10-23T05:25:34;6.50;99.90
18974;DHT22;9621;48.690;9.466;2022-10-23T05:28:01;6.60;99.90
18974;DHT22;9621;48.690;9.466;2022-10-23T05:30:28;6.50;99.90
18974;DHT22;9621;48.690;9.466;2022-10-23T05:32:58;6.60;99.90
18974;DHT22;9621;48.690;9.466;2022-10-23T05:35:28;6.50;99.90
18974;DHT22;9621;48.690;9.466;2022-10-23T05:37:56;6.50;99.90
18974;DHT22;9621;48.690;9.466;2022-10-23T05:40:24;6.50;99.90
18974;DHT22;9621;48.690;9.466;2022-10-23T05:42:51;6.50;99.90
18974;DHT22;9621;48.690;9.466;2022-10-23T05:45:18;6.50;99.90
18974;DHT22;9621;48.690;9.466;2022-10-23T05:47:46;6.50;99.90
18974;DHT22;9621;48.690;9.466;2022-10-23T05:50:14;6.50;99.90
18974;DHT22;9621;48.690;9.466;2022-10-23T05:52:45;6.60;99.90
18974;DHT22;9621;48.690;9.466;2022-10-23T05:55:13;6.60;99.90
18974;DHT22;9621;48.690;9.466;2022-10-23T05:57:40;6.60;99.90
18974;DHT22;9621;48.690;9.466;2022-10-23T06:00:08;6.60;99.90
18974;DHT22;9621;48.690;9.466;2022-10-23T06:02:35;6.60;99.90
18974;DHT22;9621;48.690;9.466;2022-10-23T06:05:03;6.60;99.90
18974;DHT22;9621;48.690;9.466;2022-10-23T06:07:30;6.60;99.90
18974;DHT22;9621;48.690;9.466;2022-10-23T06:09:58;6.50;99.90
18974;DHT22;9621;48.690;9.466;2022-10-23T06:12:25;6.60;99.90
18974;DHT22;9621;48.690;9.466;2022-10-23T06:14:52;6.60;99.90
18974;DHT22;9621;48.690;9.466;2022-10-23T06:17:19;6.50;99.90
18974;DHT22;9621;48.690;9.466;2022-10-23T06:19:46;6.60;99.90
18974;DHT22;9621;48.690;9.466;2022-10-23T06:22:13;6.60;99.90
18974;DHT22;9621;48.690;9.466;2022-10-23T06:24:40;6.60;99.90
18974;DHT22;9621;48.690;9.466;2022-10-23T06:27:08;6.70;99.90
18974;DHT22;9621;48.690;9.466;2022-10-23T06:29:35;6.80;99.90
18974;DHT22;9621;48.690;9.466;2022-10-23T06:32:02;6.80;99.90
18974;DHT22;9621;48.690;9.466;2022-10-23T06:34:29;6.90;99.90
18974;DHT22;9621;48.690;9.466;2022-10-23T06:36:56;6.90;99.90
18974;DHT22;9621;48.690;9.466;2022-10-23T06:39:23;7.00;99.90
18974;DHT22;9621;48.690;9.466;2022-10-23T06:41:50;7.00;99.90
18974;DHT22;9621;48.690;9.466;2022-10-23T06:44:18;7.20;99.90
18974;DHT22;9621;48.690;9.466;2022-10-23T06:46:45;7.10;99.90
18974;DHT22;9621;48.690;9.466;2022-10-23T06:49:13;7.20;99.90
18974;DHT22;9621;48.690;9.466;2022-10-23T06:51:41;7.30;99.90
18974;DHT22;9621;48.690;9.466;2022-10-23T06:54:09;7.30;99.90
18974;DHT22;9621;48.690;9.466;2022-10-23T06:56:36;7.40;99.90
18974;DHT22;9621;48.690;9.466;2022-10-23T06:59:04;7.40;99.90
18974;DHT22;9621;48.690;9.466;2022-10-23T07:01:34;7.50;99.90
18974;DHT22;9621;48.690;9.466;2022-10-23T07:04:01;7.70;99.90
18974;DHT22;9621;48.690;9.466;2022-10-23T07:06:28;7.70;99.90
18974;DHT22;9621;48.690;9.466;2022-10-23T07:08:55;7.80;99.90
18974;DHT22;9621;48.690;9.466;2022-10-23T07:11:22;7.90;99.90
18974;DHT22;9621;48.690;9.466;2022-10-23T07:13:49;8.10;99.90
18974;DHT22;9621;48.690;9.466;2022-10-23T07:16:17;8.20;99.90
18974;DHT22;9621;48.690;9.466;2022-10-23T07:18:47;8.50;99.90
18974;DHT22;9621;48.690;9.466;2022-10-23T07:21:14;8.70;99.90
18974;DHT22;9621;48.690;9.466;2022-10-23T07:23:41;9.00;99.90
18974;DHT22;9621;48.690;9.466;2022-10-23T07:26:10;9.30;99.90
18974;DHT22;9621;48.690;9.466;2022-10-23T07:28:39;9.70;99.90
18974;DHT22;9621;48.690;9.466;2022-10-23T07:31:07;10.10;99.90
18974;DHT22;9621;48.690;9.466;2022-10-23T07:33:35;10.40;99.90
18974;DHT22;9621;48.690;9.466;2022-10-23T07:36:06;10.80;99.90
18974;DHT22;9621;48.690;9.466;2022-10-23T07:38:33;11.10;99.90
18974;DHT22;9621;48.690;9.466;2022-10-23T07:41:01;11.50;99.90
18974;DHT22;9621;48.690;9.466;2022-10-23T07:43:28;11.70;99.90
18974;DHT22;9621;48.690;9.466;2022-10-23T07:45:55;11.90;99.90
18974;DHT22;9621;48.690;9.466;2022-10-23T07:48:22;12.20;99.90
18974;DHT22;9621;48.690;9.466;2022-10-23T07:50:49;12.40;99.90
18974;DHT22;9621;48.690;9.466;2022-10-23T07:53:20;12.60;99.90
18974;DHT22;9621;48.690;9.466;2022-10-23T07:55:52;12.70;99.90
18974;DHT22;9621;48.690;9.466;2022-10-23T07:58:19;12.90;99.90
18974;DHT22;9621;48.690;9.466;2022-10-23T08:00:56;13.00;99.90
18974;DHT22;9621;48.690;9.466;2022-10-23T08:03:23;13.10;99.90
18974;DHT22;9621;48.690;9.466;2022-10-23T08:05:51;13.20;99.90
18974;DHT22;9621;48.690;9.466;2022-10-23T08:08:20;13.30;99.90
18974;DHT22;9621;48.690;9.466;2022-10-23T08:10:48;13.40;99.90
18974;DHT22;9621;48.690;9.466;2022-10-23T08:13:16;13.40;99.90
18974;DHT22;9621;48.690;9.466;2022-10-23T08:15:45;13.60;99.90
18974;DHT22;9621;48.690;9.466;2022-10-23T08:18:13;13.70;99.90
18974;DHT22;9621;48.690;9.466;2022-10-23T08:20:41;13.80;99.90
18974;DHT22;9621;48.690;9.466;2022-10-23T08:23:09;13.90;99.90
18974;DHT22;9621;48.690;9.466;2022-10-23T08:25:38;14.00;99.90
18974;DHT22;9621;48.690;9.466;2022-10-23T08:28:06;14.00;99.90
18974;DHT22;9621;48.690;9.466;2022-10-23T08:30:33;14.10;99.90
18974;DHT22;9621;48.690;9.466;2022-10-23T08:33:02;14.30;99.90
18974;DHT22;9621;48.690;9.466;2022-10-23T08:35:29;14.50;99.90
18974;DHT22;9621;48.690;9.466;2022-10-23T08:37:56;14.70;99.90
18974;DHT22;9621;48.690;9.466;2022-10-23T08:40:24;15.00;99.90
18974;DHT22;9621;48.690;9.466;2022-10-23T08:42:56;15.10;99.90
18974;DHT22;9621;48.690;9.466;2022-10-23T08:45:30;15.30;99.90
18974;DHT22;9621;48.690;9.466;2022-10-23T08:48:02;15.50;99.90
18974;DHT22;9621;48.690;9.466;2022-10-23T08:50:35;15.50;99.90
18974;DHT22;9621;48.690;9.466;2022-10-23T08:53:12;15.60;99.90
18974;DHT22;9621;48.690;9.466;2022-10-23T08:55:44;15.70;99.90
18974;DHT22;9621;48.690;9.466;2022-10-23T08:58:16;15.80;99.90
18974;DHT22;9621;48.690;9.466;2022-10-23T09:00:46;15.80;99.90
18974;DHT22;9621;48.690;9.466;2022-10-23T09:03:13;15.80;99.90
18974;DHT22;9621;48.690;9.466;2022-10-23T09:05:56;15.90;99.90
18974;DHT22;9621;48.690;9.466;2022-10-23T09:08:38;16.00;99.90
18974;DHT22;9621;48.690;9.466;2022-10-23T09:11:15;16.00;99.90
18974;DHT22;9621;48.690;9.466;2022-10-23T09:13:58;16.30;99.90
18974;DHT22;9621;48.690;9.466;2022-10-23T09:16:39;16.60;99.90
18974;DHT22;9621;48.690;9.466;2022-10-23T09:19:11;16.90;99.90
18974;DHT22;9621;48.690;9.466;2022-10-23T09:21:40;17.30;99.90
18974;DHT22;9621;48.690;9.466;2022-10-23T09:24:13;17.80;99.90
18974;DHT22;9621;48.690;9.466;2022-10-23T09:26:43;18.20;99.90
18974;DHT22;9621;48.690;9.466;2022-10-23T09:29:20;18.60;99.90
18974;DHT22;9621;48.690;9.466;2022-10-23T09:31:49;19.10;99.90
18974;DHT22;9621;48.690;9.466;2022-10-23T09:34:19;19.50;99.90
18974;DHT22;9621;48.690;9.466;2022-10-23T09:36:51;19.90;99.90
18974;DHT22;9621;48.690;9.466;2022-10-23T09:39:22;20.30;99.90
18974;DHT22;9621;48.690;9.466;2022-10-23T09:41:49;20.70;99.90
18974;DHT22;9621;48.690;9.466;2022-10-23T09:44:20;21.10;99.90
18974;DHT22;9621;48.690;9.466;2022-10-23T09:46:49;21.40;99.90
18974;DHT22;9621;48.690;9.466;2022-10-23T09:49:20;21.70;99.90
18974;DHT22;9621;48.690;9.466;2022-10-23T09:51:59;22.00;99.90
18974;DHT22;9621;48.690;9.466;2022-10-23T09:54:26;22.30;99.90
18974;DHT22;9621;48.690;9.466;2022-10-23T09:56:54;22.40;99.90
18974;DHT22;9621;48.690;9.466;2022-10-23T09:59:27;22.50;99.90
18974;DHT22;9621;48.690;9.466;2022-10-23T10:01:56;22.70;99.90
18974;DHT22;9621;48.690;9.466;2022-10-23T10:04:31;22.90;99.90
18974;DHT22;9621;48.690;9.466;2022-10-23T10:06:59;23.00;99.90
18974;DHT22;9621;48.690;9.466;2022-10-23T10:09:27;23.20;99.90
18974;DHT22;9621;48.690;9.466;2022-10-23T10:11:56;23.40;99.90
18974;DHT22;9621;48.690;9.466;2022-10-23T10:14:47;23.50;99.90
18974;DHT22;9621;48.690;9.466;2022-10-23T10:17:20;23.80;99.90
18974;DHT22;9621;48.690;9.466;2022-10-23T10:20:11;24.00;99.90
18974;DHT22;9621;48.690;9.466;2022-10-23T10:22:44;24.20;99.90
18974;DHT22;9621;48.690;9.466;2022-10-23T10:25:18;24.30;99.90
18974;DHT22;9621;48.690;9.466;2022-10-23T10:27:54;24.40;99.90
18974;DHT22;9621;48.690;9.466;2022-10-23T10:30:24;24.40;99.90
18974;DHT22;9621;48.690;9.466;2022-10-23T10:32:58;24.50;99.90
18974;DHT22;9621;48.690;9.466;2022-10-23T10:35:39;24.50;99.90
18974;DHT22;9621;48.690;9.466;2022-10-23T10:38:19;24.60;99.90
18974;DHT22;9621;48.690;9.466;2022-10-23T10:41:08;24.80;99.90
18974;DHT22;9621;48.690;9.466;2022-10-23T10:43:42;24.90;99.90
18974;DHT22;9621;48.690;9.466;2022-10-23T10:46:20;25.00;99.90
18974;DHT22;9621;48.690;9.466;2022-10-23T10:48:56;25.10;99.90
18974;DHT22;9621;48.690;9.466;2022-10-23T10:51:29;25.20;99.80
18974;DHT22;9621;48.690;9.466;2022-10-23T10:54:14;25.30;99.90
18974;DHT22;9621;48.690;9.466;2022-10-23T10:56:44;25.40;99.50
18974;DHT22;9621;48.690;9.466;2022-10-23T10:59:15;25.50;99.90
18974;DHT22;9621;48.690;9.466;2022-10-23T11:01:46;25.50;99.90
18974;DHT22;9621;48.690;9.466;2022-10-23T11:04:24;25.50;99.80
18974;DHT22;9621;48.690;9.466;2022-10-23T11:06:53;25.50;98.10
18974;DHT22;9621;48.690;9.466;2022-10-23T11:09:24;25.40;99.90
18974;DHT22;9621;48.690;9.466;2022-10-23T11:11:51;25.40;99.30
18974;DHT22;9621;48.690;9.466;2022-10-23T11:14:20;25.40;99.90
18974;DHT22;9621;48.690;9.466;2022-10-23T11:16:51;25.40;99.90
18974;DHT22;9621;48.690;9.466;2022-10-23T11:19:22;25.50;99.10
18974;DHT22;9621;48.690;9.466;2022-10-23T11:21:56;25.60;98.90
18974;DHT22;9621;48.690;9.466;2022-10-23T11:24:54;25.50;97.40
18974;DHT22;9621;48.690;9.466;2022-10-23T11:27:46;25.40;96.70
18974;DHT22;9621;48.690;9.466;2022-10-23T11:30:24;25.30;97.10
18974;DHT22;9621;48.690;9.466;2022-10-23T11:33:23;25.00;97.10
18974;DHT22;9621;48.690;9.466;2022-10-23T11:36:04;24.70;96.90
18974;DHT22;9621;48.690;9.466;2022-10-23T11:38:33;24.30;97.40
18974;DHT22;9621;48.690;9.466;2022-10-23T11:41:02;24.10;99.40
18974;DHT22;9621;48.690;9.466;2022-10-23T11:43:31;23.80;99.10
18974;DHT22;9621;48.690;9.466;2022-10-23T11:46:10;23.60;99.60
18974;DHT22;9621;48.690;9.466;2022-10-23T11:48:41;23.30;97.50
18974;DHT22;9621;48.690;9.466;2022-10-23T11:51:25;23.10;99.20
18974;DHT22;9621;48.690;9.466;2022-10-23T11:53:52;23.00;98.40
18974;DHT22;9621;48.690;9.466;2022-10-23T11:56:26;22.80;99.90
18974;DHT22;9621;48.690;9.466;2022-10-23T11:58:56;22.70;99.10
18974;DHT22;9621;48.690;9.466;2022-10-23T12:01:31;22.60;99.90
18974;DHT22;9621;48.690;9.466;2022-10-23T12:04:03;22.50;99.90
18974;DHT22;9621;48.690;9.466;2022-10-23T12:06:38;22.50;99.90
18974;DHT22;9621;48.690;9.466;2022-10-23T12:09:17;22.50;99.90
18974;DHT22;9621;48.690;9.466;2022-10-23T12:11:48;22.50;99.90
18974;DHT22;9621;48.690;9.466;2022-10-23T12:14:27;22.60;99.90
18974;DHT22;9621;48.690;9.466;2022-10-23T12:16:55;22.70;99.90
18974;DHT22;9621;48.690;9.466;2022-10-23T12:19:25;23.00;99.90
18974;DHT22;9621;48.690;9.466;2022-10-23T12:21:53;23.20;99.90
18974;DHT22;9621;48.690;9.466;2022-10-23T12:24:31;23.50;99.90
18974;DHT22;9621;48.690;9.466;2022-10-23T12:27:13;23.80;99.90
18974;DHT22;9621;48.690;9.466;2022-10-23T12:29:53;24.00;99.90
18974;DHT22;9621;48.690;9.466;2022-10-23T12:32:40;24.30;99.90
18974;DHT22;9621;48.690;9.466;2022-10-23T12:35:23;24.40;98.80
18974;DHT22;9621;48.690;9.466;2022-10-23T12:38:09;24.40;98.30
18974;DHT22;9621;48.690;9.466;2022-10-23T12:40:37;24.40;98.50
18974;DHT22;9621;48.690;9.466;2022-10-23T12:43:20;24.40;99.90
18974;DHT22;9621;48.690;9.466;2022-10-23T12:45:48;24.30;98.70
18974;DHT22;9621;48.690;9.466;2022-10-23T12:48:18;24.40;99.90
18974;DHT22;9621;48.690;9.466;2022-10-23T12:50:49;24.40;99.90
18974;DHT22;9621;48.690;9.466;2022-10-23T12:53:17;24.50;99.60
18974;DHT22;9621;48.690;9.466;2022-10-23T12:55:47;24.50;99.90
18974;DHT22;9621;48.690;9.466;2022-10-23T12:58:19;24.50;99.90
18974;DHT22;9621;48.690;9.466;2022-10-23T13:00:50;24.60;99.80
18974;DHT22;9621;48.690;9.466;2022-10-23T13:03:19;24.80;99.80
18974;DHT22;9621;48.690;9.466;2022-10-23T13:05:49;25.10;99.90
18974;DHT22;9621;48.690;9.466;2022-10-23T13:08:18;25.40;99.90
18974;DHT22;9621;48.690;9.466;2022-10-23T13:10:45;25.50;99.90
18974;DHT22;9621;48.690;9.466;2022-10-23T13:13:18;25.80;99.90
18974;DHT22;9621;48.690;9.466;2022-10-23T13:15:46;26.10;99.30
18974;DHT22;9621;48.690;9.466;2022-10-23T13:18:14;26.30;99.90
18974;DHT22;9621;48.690;9.466;2022-10-23T13:20:42;26.40;98.80
18974;DHT22;9621;48.690;9.466;2022-10-23T13:23:28;26.40;97.10
18974;DHT22;9621;48.690;9.466;2022-10-23T13:25:58;26.20;94.50
18974;DHT22;9621;48.690;9.466;2022-10-23T13:28:26;25.90;95.50
18974;DHT22;9621;48.690;9.466;2022-10-23T13:31:03;25.70;95.10
18974;DHT22;9621;48.690;9.466;2022-10-23T13:33:33;25.30;93.30
18974;DHT22;9621;48.690;9.466;2022-10-23T13:36:03;25.00;94.90
18974;DHT22;9621;48.690;9.466;2022-10-23T13:38:34;24.70;95.10
18974;DHT22;9621;48.690;9.466;2022-10-23T13:41:03;24.40;94.90
18974;DHT22;9621;48.690;9.466;2022-10-23T13:43:31;24.20;96.30
18974;DHT22;9621;48.690;9.466;2022-10-23T13:45:59;24.00;96.50
18974;DHT22;9621;48.690;9.466;2022-10-23T13:48:26;23.80;96.70
18974;DHT22;9621;48.690;9.466;2022-10-23T13:50:54;23.60;97.00
18974;DHT22;9621;48.690;9.466;2022-10-23T13:53:23;23.50;97.30
18974;DHT22;9621;48.690;9.466;2022-10-23T13:55:51;23.40;97.60
18974;DHT22;9621;48.690;9.466;2022-10-23T13:58:18;23.30;97.20
18974;DHT22;9621;48.690;9.466;2022-10-23T14:00:46;23.30;98.10
18974;DHT22;9621;48.690;9.466;2022-10-23T14:03:15;23.20;97.50
18974;DHT22;9621;48.690;9.466;2022-10-23T14:05:43;23.20;97.80
18974;DHT22;9621;48.690;9.466;2022-10-23T14:08:10;23.10;97.70
18974;DHT22;9621;48.690;9.466;2022-10-23T14:10:37;23.10;97.90
18974;DHT22;9621;48.690;9.466;2022-10-23T14:13:06;23.00;98.20
18974;DHT22;9621;48.690;9.466;2022-10-23T14:15:32;22.90;97.80
18974;DHT22;9621;48.690;9.466;2022-10-23T14:17:59;22.90;98.90
18974;DHT22;9621;48.690;9.466;2022-10-23T14:20:27;22.80;98.80
18974;DHT22;9621;48.690;9.466;2022-10-23T14:22:54;22.70;99.70
18974;DHT22;9621;48.690;9.466;2022-10-23T14:25:21;22.70;99.90
18974;DHT22;9621;48.690;9.466;2022-10-23T14:27:48;22.60;99.90
18974;DHT22;9621;48.690;9.466;2022-10-23T14:30:17;22.40;99.90
18974;DHT22;9621;48.690;9.466;2022-10-23T14:32:44;22.30;99.90
18974;DHT22;9621;48.690;9.466;2022-10-23T14:35:10;22.20;99.90
18974;DHT22;9621;48.690;9.466;2022-10-23T14:37:38;22.00;99.90
18974;DHT22;9621;48.690;9.466;2022-10-23T14:40:06;21.90;99.90
18974;DHT22;9621;48.690;9.466;2022-10-23T14:42:33;21.70;99.90
18974;DHT22;9621;48.690;9.466;2022-10-23T14:45:00;21.50;99.90
18974;DHT22;9621;48.690;9.466;2022-10-23T14:47:28;21.40;99.90
18974;DHT22;9621;48.690;9.466;2022-10-23T14:49:56;21.20;99.90
18974;DHT22;9621;48.690;9.466;2022-10-23T14:52:23;21.10;99.90
18974;DHT22;9621;48.690;9.466;2022-10-23T14:54:50;20.90;99.90
18974;DHT22;9621;48.690;9.466;2022-10-23T14:57:18;20.80;99.90
18974;DHT22;9621;48.690;9.466;2022-10-23T14:59:46;20.70;99.90
18974;DHT22;9621;48.690;9.466;2022-10-23T15:02:13;20.50;99.90
18974;DHT22;9621;48.690;9.466;2022-10-23T15:04:42;20.40;99.90
18974;DHT22;9621;48.690;9.466;2022-10-23T15:07:09;20.30;99.90
18974;DHT22;9621;48.690;9.466;2022-10-23T15:09:36;20.20;99.90
18974;DHT22;9621;48.690;9.466;2022-10-23T15:12:04;20.10;99.90
18974;DHT22;9621;48.690;9.466;2022-10-23T15:14:34;19.90;99.90
18974;DHT22;9621;48.690;9.466;2022-10-23T15:17:01;19.90;99.90
18974;DHT22;9621;48.690;9.466;2022-10-23T15:19:28;19.90;99.90
18974;DHT22;9621;48.690;9.466;2022-10-23T15:21:57;19.90;99.90
18974;DHT22;9621;48.690;9.466;2022-10-23T15:24:24;19.80;99.90
18974;DHT22;9621;48.690;9.466;2022-10-23T15:26:51;19.70;99.90
18974;DHT22;9621;48.690;9.466;2022-10-23T15:29:18;19.70;99.90
18974;DHT22;9621;48.690;9.466;2022-10-23T15:31:48;19.60;99.90
18974;DHT22;9621;48.690;9.466;2022-10-23T15:34:19;19.50;99.90
18974;DHT22;9621;48.690;9.466;2022-10-23T15:36:47;19.50;99.90
18974;DHT22;9621;48.690;9.466;2022-10-23T15:39:17;19.30;99.90
18974;DHT22;9621;48.690;9.466;2022-10-23T15:41:44;19.30;99.90
18974;DHT22;9621;48.690;9.466;2022-10-23T15:44:13;19.10;99.90
18974;DHT22;9621;48.690;9.466;2022-10-23T15:46:41;19.00;99.90
18974;DHT22;9621;48.690;9.466;2022-10-23T15:49:09;18.80;99.90
18974;DHT22;9621;48.690;9.466;2022-10-23T15:51:36;18.70;99.90
18974;DHT22;9621;48.690;9.466;2022-10-23T15:54:04;18.60;99.90
18974;DHT22;9621;48.690;9.466;2022-10-23T15:56:32;18.50;99.90
18974;DHT22;9621;48.690;9.466;2022-10-23T15:59:00;18.50;99.90
18974;DHT22;9621;48.690;9.466;2022-10-23T16:01:27;18.40;99.90
18974;DHT22;9621;48.690;9.466;2022-10-23T16:03:54;18.20;99.90
18974;DHT22;9621;48.690;9.466;2022-10-23T16:06:21;18.10;99.90
18974;DHT22;9621;48.690;9.466;2022-10-23T16:08:48;18.10;99.90
18974;DHT22;9621;48.690;9.466;2022-10-23T16:11:17;18.00;99.90